Time;durP1;ratioP1;P1;durP2;ratioP2;P2;SDS_P1;SDS_P2;PMS_P1;PMS_P2;Temp;Humidity;BMP_temperature;BMP_pressure;BME280_temperature;BME280_humidity;BME280_pressure;Samples;Min_cycle;Max_cycle;Signal;HPM_P1;HPM_P2
2023/09/27 00:05:17;;;;;;;3.20;2.30;;;;;;;10.92;100.00;98201.38;18567015;32;20334;-54
2023/09/27 00:15:36;;;;;;;5.73;2.20;;;;;;;10.82;100.00;98194.81;18566476;31;20449;-54
2023/09/27 00:25:47;;;;;;;6.03;2.47;;;;;;;10.75;100.00;98179.91;18553589;32;20057;-54
2023/09/27 00:35:50;;;;;;;9.17;2.50;;;;;;;10.67;100.00;98197.41;18551581;32;20390;-53
2023/09/27 00:46:06;;;;;;;4.30;2.28;;;;;;;10.67;100.00;98194.69;18564689;32;20102;-52
2023/09/27 00:56:09;;;;;;;3.33;2.30;;;;;;;10.54;100.00;98203.22;18564182;32;20110;-52
2023/09/27 01:06:13;;;;;;;5.87;2.10;;;;;;;10.44;100.00;98199.38;18563379;32;20164;-51
2023/09/27 01:16:16;;;;;;;3.93;2.40;;;;;;;10.34;100.00;98213.59;18548958;32;20049;-54
2023/09/27 01:26:21;;;;;;;3.13;2.20;;;;;;;10.27;100.00;98190.53;18548911;32;20148;-54
2023/09/27 01:36:24;;;;;;;4.47;2.43;;;;;;;10.15;100.00;98183.41;18561938;32;20100;-54
2023/09/27 01:46:27;;;;;;;5.20;2.67;;;;;;;10.16;100.00;98178.78;18561383;32;20460;-53
2023/09/27 01:56:37;;;;;;;3.87;2.60;;;;;;;10.14;100.00;98199.84;18546331;32;20361;-50
2023/09/27 02:06:58;;;;;;;5.33;2.30;;;;;;;10.00;100.00;98205.66;18559829;32;20075;-51
2023/09/27 02:17:10;;;;;;;3.87;2.40;;;;;;;9.87;100.00;98189.00;18560126;32;20059;-52
2023/09/27 02:27:14;;;;;;;3.03;2.27;;;;;;;9.81;100.00;98194.34;18545978;32;20064;-55
2023/09/27 02:37:16;;;;;;;3.20;2.20;;;;;;;9.76;100.00;98210.50;18559642;32;20112;-54
2023/09/27 02:47:19;;;;;;;4.30;2.63;;;;;;;9.68;100.00;98202.03;18545427;32;20131;-54
2023/09/27 02:57:21;;;;;;;3.73;2.07;;;;;;;9.57;100.00;98203.78;18545049;32;20061;-52
2023/09/27 03:07:24;;;;;;;3.30;2.10;;;;;;;9.43;100.00;98197.94;18565580;32;20060;-54
2023/09/27 03:17:27;;;;;;;3.70;2.30;;;;;;;9.31;100.00;98206.12;18570178;32;20069;-51
2023/09/27 03:27:30;;;;;;;194.67;22.63;;;;;;;9.26;100.00;98203.34;18569716;32;20104;-53
2023/09/27 03:37:35;;;;;;;10.73;3.00;;;;;;;9.29;100.00;98208.25;18568969;32;20439;-51
2023/09/27 03:47:39;;;;;;;13.50;5.18;;;;;;;9.17;100.00;98227.25;18568675;32;20065;-54
2023/09/27 03:57:42;;;;;;;3.07;2.20;;;;;;;9.07;100.00;98219.81;18567760;31;20075;-53
2023/09/27 04:07:44;;;;;;;5.87;1.90;;;;;;;8.98;100.00;98224.78;18553276;32;20448;-54
2023/09/27 04:17:47;;;;;;;7.63;2.07;;;;;;;8.89;100.00;98225.44;18566546;32;20112;-54
2023/09/27 04:27:50;;;;;;;7.07;2.43;;;;;;;8.87;100.00;98223.00;18552190;32;20064;-53
2023/09/27 04:37:54;;;;;;;3.40;1.93;;;;;;;8.85;100.00;98208.13;18565337;32;20110;-52
2023/09/27 04:47:57;;;;;;;4.93;1.90;;;;;;;8.80;100.00;98190.81;18565008;32;20060;-51
2023/09/27 04:58:00;;;;;;;4.00;2.40;;;;;;;8.67;100.00;98210.00;18549696;32;20449;-53
2023/09/27 05:08:10;;;;;;;7.03;2.50;;;;;;;8.61;100.00;98219.88;18563172;32;20052;-52
2023/09/27 05:18:24;;;;;;;5.33;2.77;;;;;;;8.57;100.00;98231.41;18562714;32;20076;-54
2023/09/27 05:28:28;;;;;;;4.40;2.20;;;;;;;8.56;100.00;98227.88;18562683;32;20394;-52
2023/09/27 05:38:32;;;;;;;4.70;2.13;;;;;;;8.61;100.00;98229.84;18561614;32;20049;-51
2023/09/27 05:48:35;;;;;;;5.47;2.97;;;;;;;8.62;100.00;98237.69;18561354;32;20064;-53
2023/09/27 05:58:38;;;;;;;5.00;3.20;;;;;;;8.67;100.00;98228.88;18561085;32;20084;-54
2023/09/27 06:08:43;;;;;;;5.77;2.87;;;;;;;8.71;100.00;98240.81;18560290;32;20095;-54
2023/09/27 06:18:47;;;;;;;3.93;2.70;;;;;;;8.74;100.00;98237.62;18560228;32;20061;-52
2023/09/27 06:28:49;;;;;;;2.90;2.50;;;;;;;8.82;100.00;98250.72;18560521;32;20068;-55
2023/09/27 06:38:59;;;;;;;5.30;3.77;;;;;;;9.05;100.00;98250.81;18562874;32;20365;-52
2023/09/27 06:49:07;;;;;;;5.40;4.03;;;;;;;9.35;100.00;98245.03;18572473;32;20064;-55
2023/09/27 06:59:10;;;;;;;5.93;3.70;;;;;;;9.70;100.00;98246.59;18557773;32;20114;-54
2023/09/27 07:09:16;;;;;;;6.87;3.87;;;;;;;10.04;100.00;98242.97;18570556;32;20060;-50
2023/09/27 07:19:21;;;;;;;5.67;3.07;;;;;;;10.40;100.00;98244.22;18570850;32;20086;-54
2023/09/27 07:29:25;;;;;;;5.97;3.33;;;;;;;10.78;100.00;98234.28;18569373;32;20065;-52
2023/09/27 07:39:27;;;;;;;4.90;3.17;;;;;;;11.24;100.00;98243.84;18568717;31;20057;-53
2023/09/27 07:49:30;;;;;;;4.15;2.92;;;;;;;11.68;100.00;98238.16;18567818;32;20076;-54
2023/09/27 07:59:35;;;;;;;6.97;3.90;;;;;;;12.10;100.00;98231.88;18553667;32;20057;-54
2023/09/27 08:09:38;;;;;;;6.65;4.72;;;;;;;12.54;100.00;98231.41;18567000;32;20443;-55
2023/09/27 08:19:43;;;;;;;6.18;4.40;;;;;;;13.05;100.00;98224.38;18552964;32;20060;-51
2023/09/27 08:29:46;;;;;;;8.57;6.25;;;;;;;13.61;100.00;98209.09;18566115;32;20064;-55
2023/09/27 08:39:49;;;;;;;11.07;6.70;;;;;;;14.08;100.00;98213.25;18565502;32;20060;-53
2023/09/27 08:49:52;;;;;;;10.02;6.25;;;;;;;14.49;100.00;98213.03;18564944;32;20056;-55
2023/09/27 08:59:56;;;;;;;7.65;5.85;;;;;;;14.95;100.00;98205.66;18563982;32;20068;-55
2023/09/27 09:09:59;;;;;;;9.63;6.57;;;;;;;15.34;100.00;98183.75;18563383;32;20445;-54
2023/09/27 09:20:15;;;;;;;8.02;5.47;;;;;;;15.74;100.00;98173.47;18563154;32;20061;-56
2023/09/27 09:30:35;;;;;;;10.90;5.60;;;;;;;16.13;100.00;98179.84;18548062;32;20068;-55
2023/09/27 09:41:08;;;;;;;6.87;5.30;;;;;;;16.39;100.00;98180.28;18561979;32;20116;-56
2023/09/27 09:51:11;;;;;;;9.60;6.37;;;;;;;16.79;100.00;98171.75;18546055;32;20100;-57
2023/09/27 10:01:21;;;;;;;9.48;5.60;;;;;;;17.19;100.00;98160.47;18560975;32;20044;-56
2023/09/27 10:11:26;;;;;;;7.85;5.60;;;;;;;17.51;100.00;98154.09;18559896;31;20052;-56
2023/09/27 10:21:29;;;;;;;7.85;5.25;;;;;;;17.89;100.00;98136.66;18560132;32;20106;-57
2023/09/27 10:31:38;;;;;;;8.87;4.60;;;;;;;18.07;100.00;98124.75;18559764;32;20060;-57
2023/09/27 10:41:44;;;;;;;6.93;4.97;;;;;;;18.42;100.00;98127.00;18559811;32;20092;-57
2023/09/27 10:51:48;;;;;;;8.80;4.93;;;;;;;18.63;100.00;98119.88;18559504;32;20449;-57
2023/09/27 11:02:06;;;;;;;7.43;4.50;;;;;;;18.79;100.00;98112.09;18559224;32;20061;-57
2023/09/27 11:12:11;;;;;;;4.97;3.55;;;;;;;18.96;100.00;98102.38;18558719;32;20063;-57
2023/09/27 11:22:28;;;;;;;6.35;4.20;;;;;;;19.30;100.00;98090.75;18558192;32;20052;-57
2023/09/27 11:32:50;;;;;;;6.45;4.05;;;;;;;19.66;100.00;98074.41;18569812;32;20389;-57
2023/09/27 11:42:54;;;;;;;7.05;4.57;;;;;;;20.22;100.00;98053.47;18569187;32;20049;-56
2023/09/27 11:52:56;;;;;;;6.07;4.15;;;;;;;20.86;100.00;98038.19;18568315;32;20463;-56
2023/09/27 12:02:59;;;;;;;;;;;;;;;21.47;100.00;98017.81;18554294;32;20057;-57
2023/09/27 12:13:02;;;;;;;5.10;3.95;;;;;;;21.97;100.00;98008.72;18567600;32;19952;-57
2023/09/27 12:23:05;;;;;;;6.35;4.07;;;;;;;22.38;100.00;97999.94;18566419;32;20061;-57
2023/09/27 12:33:08;;;;;;;4.40;3.28;;;;;;;22.81;100.00;97993.16;18539360;32;20083;-57
2023/09/27 12:43:12;;;;;;;5.85;3.90;;;;;;;23.22;100.00;97977.56;18564951;32;20153;-57
2023/09/27 12:53:16;;;;;;;4.07;3.20;;;;;;;23.49;100.00;97970.50;18564553;32;20428;-57
2023/09/27 13:03:18;;;;;;;6.78;3.35;;;;;;;23.58;99.53;97964.81;18563753;32;20060;-56
2023/09/27 13:13:21;;;;;;;9.18;3.70;;;;;;;23.46;83.08;97951.88;18563442;31;20092;-57
2023/09/27 13:23:24;;;;;;;4.72;3.20;;;;;;;23.17;77.34;97941.91;18562814;32;20044;-56
2023/09/27 13:33:29;;;;;;;7.87;4.30;;;;;;;22.96;93.35;97923.53;18562274;32;20368;-57
2023/09/27 13:43:33;;;;;;;4.97;3.80;;;;;;;22.77;79.98;97921.34;18547593;32;20085;-56
2023/09/27 13:53:37;;;;;;;5.85;3.60;;;;;;;22.50;86.99;97906.28;18560410;32;20083;-56
2023/09/27 14:03:40;;;;;;;5.15;3.60;;;;;;;22.51;88.82;97905.16;18560838;32;20478;-56
2023/09/27 14:13:45;;;;;;;4.47;3.35;;;;;;;22.43;90.28;97886.78;18560909;32;20052;-57
2023/09/27 14:23:48;;;;;;;5.62;3.35;;;;;;;22.24;85.92;97885.38;18560197;32;20089;-56
2023/09/27 14:33:53;;;;;;;5.18;3.33;;;;;;;22.15;94.52;97881.91;18545867;32;20076;-55
2023/09/27 14:44:02;;;;;;;5.57;3.12;;;;;;;21.97;82.81;97871.06;18559552;32;20045;-55
2023/09/27 14:54:05;;;;;;;4.80;3.25;;;;;;;22.30;97.36;97859.19;18559486;32;20061;-55
2023/09/27 15:04:09;;;;;;;5.22;3.33;;;;;;;22.05;100.00;97852.84;18566980;31;20437;-56
2023/09/27 15:14:12;;;;;;;5.40;3.03;;;;;;;21.74;100.00;97854.16;18571005;32;20113;-56
2023/09/27 15:24:15;;;;;;;5.80;3.00;;;;;;;21.38;100.00;97844.59;18570478;32;20088;-56
2023/09/27 15:34:19;;;;;;;4.75;3.12;;;;;;;21.05;100.00;97831.59;18569497;32;20083;-56
2023/09/27 15:44:23;;;;;;;4.35;2.80;;;;;;;20.87;100.00;97836.44;18568956;32;20105;-56
2023/09/27 15:54:26;;;;;;;4.70;3.28;;;;;;;20.53;100.00;97860.19;18568489;32;20123;-56
2023/09/27 16:04:34;;;;;;;4.50;3.08;;;;;;;20.22;100.00;97866.78;18567314;32;20040;-56
2023/09/27 16:14:51;;;;;;;5.40;3.50;;;;;;;19.88;100.00;97873.19;18566932;32;20044;-56
2023/09/27 16:24:55;;;;;;;5.18;3.17;;;;;;;19.51;100.00;97878.19;18566666;32;20491;-56
2023/09/27 16:34:59;;;;;;;4.85;2.83;;;;;;;19.13;100.00;97883.19;18565764;32;20053;-56
2023/09/27 16:45:02;;;;;;;;;;;;;;;18.79;100.00;97883.94;18551436;32;20081;-55
2023/09/27 16:55:05;;;;;;;4.80;3.33;;;;;;;18.51;100.00;97894.31;18564671;31;19989;-56
2023/09/27 17:05:09;;;;;;;5.70;3.47;;;;;;;18.23;100.00;97900.78;18549645;32;20135;-56
2023/09/27 17:15:12;;;;;;;;;;;;;;;17.86;100.00;97888.34;18549845;32;20076;-56
2023/09/27 17:25:15;;;;;;;9.77;5.30;;;;;;;17.50;100.00;97890.03;18563174;32;20255;-56
2023/09/27 17:35:19;;;;;;;6.32;3.75;;;;;;;17.07;100.00;97899.44;18562431;32;20105;-54
2023/09/27 17:45:22;;;;;;;11.10;4.27;;;;;;;16.61;100.00;97886.75;18562072;32;20044;-56
2023/09/27 17:55:25;;;;;;;6.00;3.40;;;;;;;16.17;100.00;97883.50;18561562;32;20504;-56
2023/09/27 18:05:29;;;;;;;7.12;3.10;;;;;;;15.88;100.00;97875.56;18560609;32;20060;-56
2023/09/27 18:15:32;;;;;;;7.53;3.42;;;;;;;15.53;100.00;97892.19;18560518;32;20128;-56
2023/09/27 18:25:36;;;;;;;;;;;;;;;15.33;100.00;97892.53;18560490;32;20466;-55
2023/09/27 18:35:40;;;;;;;9.23;2.92;;;;;;;15.11;100.00;97904.81;18564481;32;20285;-55
2023/09/27 18:45:43;;;;;;;3.30;2.37;;;;;;;14.89;100.00;97903.47;18572385;32;20474;-55
2023/09/27 18:55:46;;;;;;;7.12;3.15;;;;;;;14.69;100.00;97911.88;18557945;32;20057;-55
2023/09/27 19:05:50;;;;;;;5.50;3.17;;;;;;;14.48;100.00;97912.09;18571381;32;20124;-55
2023/09/27 19:15:55;;;;;;;5.97;2.87;;;;;;;14.22;100.00;97925.16;18557039;32;20052;-55
2023/09/27 19:25:59;;;;;;;8.77;3.03;;;;;;;14.05;100.00;97929.13;18570483;32;20063;-55
2023/09/27 19:36:03;;;;;;;7.32;3.65;;;;;;;13.88;100.00;97939.62;18569480;31;20409;-54
2023/09/27 19:46:07;;;;;;;6.70;3.12;;;;;;;13.66;100.00;97940.06;18569548;32;20048;-56
2023/09/27 19:56:10;;;;;;;7.80;3.03;;;;;;;13.55;100.00;97940.16;18568568;32;20060;-54
2023/09/27 20:06:15;;;;;;;5.40;3.25;;;;;;;13.49;100.00;97944.00;18567822;32;20056;-54
2023/09/27 20:16:25;;;;;;;9.90;3.60;;;;;;;13.35;100.00;97957.41;18541001;32;20103;-55
2023/09/27 20:26:34;;;;;;;;;;;;;;;13.27;100.00;97962.59;18566806;31;20091;-56
2023/09/27 20:36:37;;;;;;;9.73;3.03;;;;;;;13.19;100.00;97948.47;18566336;32;20328;-57
2023/09/27 20:46:40;;;;;;;7.20;3.00;;;;;;;13.07;100.00;97950.72;18565380;32;20397;-55
2023/09/27 20:56:43;;;;;;;5.95;2.87;;;;;;;12.98;100.00;97957.84;18564158;32;20079;-55
2023/09/27 21:06:46;;;;;;;5.90;3.33;;;;;;;12.91;100.00;97965.44;18549933;32;20084;-55
2023/09/27 21:16:53;;;;;;;5.82;3.40;;;;;;;12.85;100.00;97964.66;18563472;32;20492;-54
2023/09/27 21:27:30;;;;;;;6.05;3.22;;;;;;;12.83;100.00;97964.94;18562690;32;20053;-56
2023/09/27 21:37:48;;;;;;;4.95;2.97;;;;;;;12.82;100.00;97951.66;18562296;32;20056;-55
2023/09/27 21:47:57;;;;;;;11.23;3.58;;;;;;;12.74;100.00;97953.03;18562192;32;20480;-55
2023/09/27 21:58:00;;;;;;;8.98;3.87;;;;;;;12.64;100.00;97953.09;18547094;32;20067;-56
2023/09/27 22:08:03;;;;;;;8.80;3.53;;;;;;;12.56;100.00;97948.22;18545866;32;20152;-56
2023/09/27 22:18:09;;;;;;;5.70;3.40;;;;;;;12.42;100.00;97948.81;18546894;31;20082;-55
2023/09/27 22:28:21;;;;;;;5.32;3.50;;;;;;;12.37;100.00;97946.09;18560344;32;20091;-55
2023/09/27 22:38:49;;;;;;;8.70;4.00;;;;;;;12.36;100.00;97942.59;18559647;32;20092;-55
2023/09/27 22:49:11;;;;;;;5.45;3.62;;;;;;;12.38;100.00;97950.44;18559509;32;20137;-55
2023/09/27 22:59:18;;;;;;;9.88;3.78;;;;;;;12.40;100.00;97948.25;18559181;32;20078;-56
2023/09/27 23:09:24;;;;;;;7.32;4.15;;;;;;;12.44;100.00;97943.09;18544010;31;20139;-55
2023/09/27 23:19:27;;;;;;;5.65;4.10;;;;;;;12.45;100.00;97944.72;18545547;32;20061;-55
2023/09/27 23:39:42;;;;;;;6.35;3.95;;;;;;;12.52;100.00;97951.47;18555533;32;20068;-55
2023/09/27 23:49:45;;;;;;;6.37;3.83;;;;;;;12.56;100.00;97948.22;18569301;32;20044;-56
2023/09/27 23:59:51;;;;;;;8.52;3.92;;;;;;;12.55;100.00;97960.97;18568375;32;20100;-55
